AirNav   Air Wisconsin Up To $57,000 Bonus
 
 882 users online  

FA52 Advent Hospital-Sebring Heliport
Sebring, Florida, USA

GOING TO SEBRING?


FAA INFORMATION EFFECTIVE 05 DECEMBER 2019

Location

FAA Identifier: FA52
Lat/Long: 27-32-16.9440N 081-30-33.3864W
27-32.282400N 081-30.556440W
27.5380400,-81.5092740
(estimated)
Elevation: 154 ft. / 47 m (estimated)
Variation: 04W (2000)
From city: 3 miles W of SEBRING, FL
Time zone: UTC -5 (UTC -4 during Daylight Saving Time)
Zip code: 33870

Heliport Operations

Heliport use: Private use. Permission required prior to landing
Activation date: 05/2001
Control tower: no
ARTCC: MIAMI CENTER
FSS: SAINT PETERSBURG FLIGHT SERVICE STATION
Attendance: CONTINUOUS
Wind indicator: yes
Segmented circle: no

Heliport Communications

WX AWOS-3 at AVO (3 nm N): 118.725 (863-453-4223)
WX AWOS-3 at SEF (10 nm SE): 119.475 (863-655-6424)

Nearby radio navigation aids

VOR radial/distance  VOR name  Freq  Var
LALr134/38.0LAKELAND VORTAC116.0001E

Heliport Services

Runway Information

Helipad H1

Dimensions: 62 x 62 ft. / 19 x 19 m
Surface: concrete
Latitude: 27-32.282407N
Longitude: 081-30.556440W
Elevation: 154.0 ft.
Traffic pattern: leftleft

Heliport Ownership and Management from official FAA records

Ownership: Privately-owned
Owner: ADVENT HEALTH SEBRING
4200 SUN 'N LAKE BLVD
SEBRING, FL 33872
Phone 863-314-4466
Manager: ALLIE CREWS
4200 SUN 'N LAKE BLVD
SEBRING, FL 33872
Phone 863-402-3373
CELL: 863-381-5975

Additional Remarks

FOR CD CTC MIAMI ARTCC AT 305-716-1731.

Instrument Procedures

There are no published instrument procedures at FA52.

Some nearby airports with instrument procedures:

KAVO - Avon Park Executive Airport (3 nm N)
KSEF - Sebring Regional Airport (10 nm SE)
KCHN - Wauchula Municipal Airport (20 nm W)
X07 - Lake Wales Municipal Airport (22 nm N)
X06 - Arcadia Municipal Airport (27 nm SW)
 
Loc | Ops | Rwys | IFR | FBO | Links
Com | Nav | Svcs | Stats | Notes


 
Area around FA52 (Advent Hospital-Sebring Heliport)
 
Road maps at: MapQuest Bing Google
 
Aerial photo
WARNING: Photo may not be current or correct
Aerial photo of FA52 (Advent Hospital-Sebring Heliport)
Photo by Don F. Pease
Photo taken 18-Jan-2005
looking south.

Do you have a better or more recent aerial photo of Advent Hospital-Sebring Heliport that you would like to share? If so, please send us your photo.

 
Sectional chart

 
Airport distance calculator
Flying to Advent Hospital-Sebring Heliport? Find the distance to fly.

From to FA52

Sunrise and sunset
Times for 07-Dec-2019
 Local
(UTC-5)
 Zulu
(UTC)
Morning civil twilight06:3911:39
Sunrise07:0512:05
Sunset17:3022:30
Evening civil twilight17:5622:56

Current date and time
Zulu (UTC)  08-Dec-2019 03:11:01
Local (UTC-5)  07-Dec-2019 22:11:01
 
METAR
KSEF 
10nm SE 
080255Z AUTO 03005KT 10SM OVC110 17/12 A3018 RMK AO2 T01650120
TAF
KLAL 
37nm NW 
071721Z 0718/0818 08006KT P6SM SCT100 FM072000 03006KT P6SM BKN100 FM080200 06003KT P6SM BKN100 FM081500 08006KT P6SM SCT030 SCT100
KISM 
45nm N 
071739Z 0718/0818 04006KT P6SM FEW040 SCT100 SCT250 FM080000 02005KT P6SM SCT050 BKN100 FM081500 08007KT P6SM SCT035 BKN090
KPGD 
46nm SW 
071721Z 0718/0818 04005KT P6SM BKN100 FM072100 03006KT P6SM BKN100 FM080200 06003KT P6SM BKN100 FM081500 09007KT P6SM SCT030 SCT100
NOTAMs
Click for the latest NOTAMs
NOTAMs are issued by the DoD/FAA and will open in a separate window not controlled by AirNav.

 

 
 

Would you like to see your business listed on this page?

 If your business provides an interesting product or service to pilots, flight crews, aircraft, or users of the Advent Hospital-Sebring Heliport, you should consider listing it here.  To start the listing process, click on the button below
 
Add a business
 

Other Pages about Advent Hospital-Sebring Heliport

Update a link
 
Copyright © AirNav, LLC. All rights reserved. Privacy Policy  Contact